createdAt,value
2022-09-04T00:02:17.961Z,12.00
2022-09-04T00:04:54.735Z,13.70
2022-09-04T00:07:29.063Z,18.60
2022-09-04T00:10:11.405Z,16.63
2022-09-04T00:12:45.972Z,14.43
2022-09-04T00:15:19.412Z,17.53
2022-09-04T00:17:53.959Z,25.80
2022-09-04T00:20:32.030Z,25.37
2022-09-04T00:23:06.727Z,27.60
2022-09-04T00:25:42.139Z,32.23
2022-09-04T00:28:16.672Z,35.53
2022-09-04T00:30:50.937Z,31.23
2022-09-04T00:33:26.925Z,28.70
2022-09-04T00:35:59.706Z,31.57
2022-09-04T00:38:44.399Z,32.43
2022-09-04T00:41:22.778Z,31.37
2022-09-04T00:44:10.522Z,34.70
2022-09-04T00:46:53.252Z,32.47
2022-09-04T00:49:46.252Z,32.53
2022-09-04T00:52:36.328Z,33.80
2022-09-04T00:55:27.876Z,32.60
2022-09-04T00:58:14.399Z,27.80
2022-09-04T01:00:46.188Z,29.97
2022-09-04T01:03:34.071Z,31.67
2022-09-04T01:06:32.920Z,26.30
2022-09-04T01:09:24.721Z,27.10
2022-09-04T01:12:06.839Z,26.07
2022-09-04T01:14:41.571Z,30.33
2022-09-04T01:17:15.657Z,28.53
2022-09-04T01:19:56.678Z,28.23
2022-09-04T01:22:48.357Z,24.63
2022-09-04T01:25:35.268Z,24.73
2022-09-04T01:28:08.988Z,27.50
2022-09-04T01:30:47.079Z,21.90
2022-09-04T01:33:23.945Z,36.77
2022-09-04T01:35:57.827Z,22.17
2022-09-04T01:38:34.822Z,24.93
2022-09-04T01:41:11.803Z,18.03
2022-09-04T01:43:41.285Z,19.80
2022-09-04T01:46:29.378Z,21.17
2022-09-04T01:49:05.313Z,15.57
2022-09-04T01:51:41.190Z,15.80
2022-09-04T01:54:20.510Z,14.20
2022-09-04T01:57:05.732Z,14.30
2022-09-04T01:59:46.116Z,13.40
2022-09-04T02:02:21.738Z,20.60
2022-09-04T02:04:56.941Z,13.70
2022-09-04T02:07:33.918Z,15.63
2022-09-04T02:10:09.447Z,14.43
2022-09-04T02:12:50.979Z,14.53
2022-09-04T02:15:35.624Z,14.20
2022-09-04T02:18:13.168Z,13.47
2022-09-04T02:20:48.146Z,15.17
2022-09-04T02:23:21.921Z,13.27
2022-09-04T02:25:55.717Z,14.80
2022-09-04T02:28:34.310Z,16.40
2022-09-04T02:31:14.285Z,15.37
2022-09-04T02:33:48.874Z,17.47
2022-09-04T02:36:24.787Z,16.43
2022-09-04T02:39:00.841Z,17.47
2022-09-04T02:41:38.813Z,15.57
2022-09-04T02:44:20.870Z,15.73
2022-09-04T02:47:02.454Z,16.33
2022-09-04T02:49:40.757Z,15.63
2022-09-04T02:52:25.726Z,17.10
2022-09-04T02:55:12.240Z,16.87
2022-09-04T02:57:55.050Z,17.47
2022-09-04T03:00:39.762Z,14.97
2022-09-04T03:03:15.862Z,16.60
2022-09-04T03:05:52.739Z,16.33
2022-09-04T03:08:24.809Z,14.17
2022-09-04T03:10:57.510Z,17.27
2022-09-04T03:13:32.009Z,16.77
2022-09-04T03:16:06.683Z,16.87
2022-09-04T03:18:55.914Z,18.87
2022-09-04T03:21:30.545Z,17.90
2022-09-04T03:24:05.627Z,17.17
2022-09-04T03:26:37.043Z,16.87
2022-09-04T03:29:15.011Z,18.67
2022-09-04T03:31:49.903Z,19.73
2022-09-04T03:34:32.062Z,19.70
2022-09-04T03:37:16.838Z,18.97
2022-09-04T03:39:58.571Z,19.27
2022-09-04T03:42:36.825Z,17.77
2022-09-04T03:45:17.799Z,18.03
2022-09-04T03:47:55.612Z,18.87
2022-09-04T03:50:31.350Z,17.97
2022-09-04T03:53:07.996Z,18.57
2022-09-04T03:56:02.419Z,17.27
2022-09-04T03:58:40.565Z,16.23
2022-09-04T04:01:24.193Z,16.73
2022-09-04T04:04:07.735Z,17.40
2022-09-04T04:06:45.398Z,16.20
2022-09-04T04:09:35.312Z,18.53
2022-09-04T04:12:27.492Z,22.43
2022-09-04T04:15:11.149Z,23.83
2022-09-04T04:18:06.837Z,23.53
2022-09-04T04:20:44.569Z,25.93
2022-09-04T04:23:36.360Z,37.07
2022-09-04T04:26:11.766Z,41.67
2022-09-04T04:29:01.979Z,50.80
2022-09-04T04:31:45.685Z,34.87
2022-09-04T04:34:25.274Z,31.23
2022-09-04T04:37:01.298Z,27.47
2022-09-04T04:39:37.554Z,24.33
2022-09-04T04:42:17.149Z,30.57
2022-09-04T04:45:19.277Z,25.60
2022-09-04T04:48:14.981Z,24.30
2022-09-04T04:50:51.581Z,20.70
2022-09-04T04:53:29.225Z,20.67
2022-09-04T04:56:05.619Z,21.53
2022-09-04T04:58:58.866Z,18.23
2022-09-04T05:01:37.257Z,17.17
2022-09-04T05:04:15.115Z,18.70
2022-09-04T05:06:52.087Z,20.77
2022-09-04T05:09:26.852Z,25.53
2022-09-04T05:12:01.003Z,22.30
2022-09-04T05:14:44.764Z,26.67
2022-09-04T05:17:23.574Z,26.57
2022-09-04T05:20:00.069Z,27.43
2022-09-04T05:22:35.948Z,30.37
2022-09-04T05:25:12.582Z,26.57
2022-09-04T05:27:49.921Z,27.10
2022-09-04T05:30:21.276Z,25.63
2022-09-04T05:32:57.470Z,23.50
2022-09-04T05:35:35.221Z,19.67
2022-09-04T05:38:10.121Z,16.70
2022-09-04T05:40:57.171Z,17.73
2022-09-04T05:43:36.992Z,18.43
2022-09-04T05:46:13.280Z,16.53
2022-09-04T05:48:47.228Z,21.40
2022-09-04T05:52:08.806Z,21.73
2022-09-04T05:55:07.048Z,20.57
2022-09-04T05:57:48.337Z,21.50
2022-09-04T06:00:19.121Z,26.17
2022-09-04T06:03:09.820Z,28.63
2022-09-04T06:05:47.863Z,27.33
2022-09-04T06:08:42.780Z,26.87
2022-09-04T06:11:37.887Z,29.23
2022-09-04T06:14:26.443Z,29.90
2022-09-04T06:17:16.837Z,31.83
2022-09-04T06:20:04.228Z,38.03
2022-09-04T06:22:57.655Z,31.30
2022-09-04T06:26:06.254Z,30.67
2022-09-04T06:29:14.926Z,33.83
2022-09-04T06:31:56.764Z,31.83
2022-09-04T06:34:41.931Z,38.77
2022-09-04T06:37:24.192Z,34.43
2022-09-04T06:40:06.927Z,37.50
2022-09-04T06:42:51.650Z,37.17
2022-09-04T06:45:31.002Z,37.13
2022-09-04T06:48:09.632Z,42.57
2022-09-04T06:50:50.837Z,41.77
2022-09-04T06:53:29.407Z,38.97
2022-09-04T06:56:09.857Z,42.57
2022-09-04T06:59:00.567Z,47.00
2022-09-04T07:01:40.468Z,42.07
2022-09-04T07:04:21.058Z,45.53
2022-09-04T07:06:59.557Z,43.03
2022-09-04T07:09:33.669Z,42.40
2022-09-04T07:12:21.883Z,36.27
2022-09-04T07:15:41.348Z,48.53
2022-09-04T07:18:24.669Z,53.97
2022-09-04T07:21:04.208Z,48.80
2022-09-04T07:23:45.098Z,50.90
2022-09-04T07:26:26.830Z,44.47
2022-09-04T07:29:16.126Z,45.07
2022-09-04T07:31:51.072Z,39.80
2022-09-04T07:34:26.217Z,44.33
2022-09-04T07:37:01.428Z,44.83
2022-09-04T07:39:39.049Z,47.37
2022-09-04T07:42:14.597Z,45.10
2022-09-04T07:44:49.850Z,47.40
2022-09-04T07:47:23.054Z,46.37
2022-09-04T07:49:59.222Z,48.40
2022-09-04T07:52:45.418Z,47.00
2022-09-04T07:55:37.457Z,50.00
2022-09-04T07:58:50.369Z,47.03
2022-09-04T08:01:38.298Z,52.60
2022-09-04T08:04:29.946Z,56.57
2022-09-04T08:07:00.411Z,62.30
2022-09-04T08:09:47.786Z,58.90
2022-09-04T08:12:45.993Z,67.03
2022-09-04T08:15:19.967Z,72.63
2022-09-04T08:18:03.978Z,73.63
2022-09-04T08:20:42.953Z,73.77
2022-09-04T08:23:29.485Z,74.43
2022-09-04T08:26:14.457Z,82.37
2022-09-04T08:28:59.287Z,80.33
2022-09-04T08:31:31.948Z,71.77
2022-09-04T08:34:29.586Z,59.10
2022-09-04T08:37:10.862Z,65.53
2022-09-04T08:39:48.185Z,64.40
2022-09-04T08:42:46.009Z,66.93
2022-09-04T08:45:48.771Z,64.63
2022-09-04T08:48:57.022Z,63.00
2022-09-04T08:52:06.605Z,59.67
2022-09-04T08:55:09.685Z,49.73
2022-09-04T08:57:55.798Z,42.77
2022-09-04T09:00:30.249Z,39.87
2022-09-04T09:03:30.562Z,34.37
2022-09-04T09:06:29.576Z,36.47
2022-09-04T09:09:44.187Z,38.00
2022-09-04T09:12:57.230Z,37.97
2022-09-04T09:15:50.144Z,36.00
2022-09-04T09:18:35.733Z,37.47
2022-09-04T09:21:08.924Z,35.43
2022-09-04T09:23:45.367Z,34.73
2022-09-04T09:26:26.515Z,33.67
2022-09-04T09:29:27.553Z,32.47
2022-09-04T09:32:38.486Z,30.60
2022-09-04T09:35:55.772Z,26.50
2022-09-04T09:38:41.932Z,34.13
2022-09-04T09:41:28.772Z,28.43
2022-09-04T09:44:27.712Z,28.07
2022-09-04T09:47:31.091Z,30.02
2022-09-04T09:50:16.750Z,29.20
2022-09-04T09:53:04.818Z,27.75
2022-09-04T09:56:02.252Z,28.70
2022-09-04T09:58:56.226Z,27.80
2022-09-04T10:01:42.403Z,33.05
2022-09-04T10:04:40.018Z,24.75
2022-09-04T10:07:45.985Z,25.40
2022-09-04T10:10:47.036Z,29.92
2022-09-04T10:13:38.339Z,25.38
2022-09-04T10:16:39.057Z,20.70
2022-09-04T10:19:46.419Z,18.08
2022-09-04T10:22:42.129Z,22.20
2022-09-04T10:25:46.046Z,17.35
2022-09-04T10:28:55.641Z,15.75
2022-09-04T10:31:47.104Z,15.02
2022-09-04T10:34:33.759Z,18.65
2022-09-04T10:37:17.320Z,17.73
2022-09-04T10:40:19.193Z,15.00
2022-09-04T10:43:01.348Z,15.35
2022-09-04T10:45:37.819Z,17.30
2022-09-04T10:48:41.594Z,18.17
2022-09-04T10:51:36.150Z,14.40
2022-09-04T10:54:40.185Z,11.05
2022-09-04T10:57:22.398Z,11.95
2022-09-04T11:00:05.512Z,9.38
2022-09-04T11:03:03.396Z,11.10
2022-09-04T11:05:57.281Z,11.25
2022-09-04T11:08:42.817Z,12.25
2022-09-04T11:11:42.233Z,9.23
2022-09-04T11:14:31.003Z,10.30
2022-09-04T11:17:33.946Z,9.55
2022-09-04T11:20:45.148Z,8.10
2022-09-04T11:23:42.647Z,9.45
2022-09-04T11:26:38.003Z,10.80
2022-09-04T11:29:31.203Z,8.07
2022-09-04T11:32:17.190Z,5.47
2022-09-04T11:35:25.869Z,8.75
2022-09-04T11:38:08.251Z,4.97
2022-09-04T11:41:10.236Z,4.95
2022-09-04T11:44:25.891Z,5.32
2022-09-04T11:47:30.400Z,5.43
2022-09-04T11:50:19.181Z,3.72
2022-09-04T11:53:12.874Z,2.80
2022-09-04T11:56:13.116Z,3.40
2022-09-04T11:59:11.295Z,4.95
2022-09-04T12:01:57.558Z,3.85
2022-09-04T12:04:40.352Z,6.32
2022-09-04T12:07:42.721Z,4.72
2022-09-04T12:10:32.098Z,3.45
2022-09-04T12:13:26.914Z,3.20
2022-09-04T12:16:23.563Z,2.47
2022-09-04T12:19:23.167Z,4.60
2022-09-04T12:22:19.777Z,3.88
2022-09-04T12:25:10.572Z,4.45
2022-09-04T12:28:33.986Z,3.90
2022-09-04T12:31:21.064Z,3.35
2022-09-04T12:34:10.067Z,5.68
2022-09-04T12:37:24.096Z,4.68
2022-09-04T12:40:17.139Z,3.65
2022-09-04T12:42:57.359Z,7.32
2022-09-04T12:45:36.506Z,3.95
2022-09-04T12:48:14.870Z,4.53
2022-09-04T12:50:54.993Z,4.07
2022-09-04T12:53:55.143Z,4.70
2022-09-04T12:56:35.698Z,3.85
2022-09-04T12:59:20.775Z,3.20
2022-09-04T13:02:01.956Z,2.75
2022-09-04T13:04:39.743Z,3.65
2022-09-04T13:07:18.812Z,3.85
2022-09-04T13:10:00.828Z,3.03
2022-09-04T13:12:39.775Z,2.65
2022-09-04T13:15:21.664Z,2.72
2022-09-04T13:18:03.812Z,2.60
2022-09-04T13:20:40.288Z,3.95
2022-09-04T13:23:21.052Z,4.07
2022-09-04T13:26:11.960Z,3.10
2022-09-04T13:28:52.315Z,3.55
2022-09-04T13:31:44.913Z,4.60
2022-09-04T13:34:23.951Z,5.07
2022-09-04T13:37:04.950Z,5.53
2022-09-04T13:39:54.376Z,4.60
2022-09-04T13:42:54.385Z,3.05
2022-09-04T13:45:26.158Z,4.28
2022-09-04T13:48:00.375Z,5.03
2022-09-04T13:50:34.167Z,3.60
2022-09-04T13:53:11.057Z,5.80
2022-09-04T13:55:42.181Z,2.90
2022-09-04T14:09:16.514Z,5.10
2022-09-04T14:12:04.186Z,4.32
2022-09-04T14:15:05.546Z,4.90
2022-09-04T14:17:39.094Z,4.30
2022-09-04T14:20:19.464Z,4.00
2022-09-04T14:23:02.636Z,3.97
2022-09-04T14:25:39.381Z,3.53
2022-09-04T14:28:20.399Z,4.03
2022-09-04T14:31:01.066Z,3.00
2022-09-04T14:33:40.130Z,3.55
2022-09-04T14:36:18.509Z,3.88
2022-09-04T14:39:02.707Z,2.83
2022-09-04T14:41:47.428Z,2.95
2022-09-04T14:44:28.963Z,3.67
2022-09-04T14:47:11.826Z,4.60
2022-09-04T14:49:47.307Z,4.07
2022-09-04T14:52:18.392Z,2.75
2022-09-04T14:54:48.043Z,6.05
2022-09-04T14:57:26.088Z,2.92
2022-09-04T15:00:04.038Z,3.60
2022-09-04T15:02:37.708Z,3.72
2022-09-04T15:05:16.800Z,6.03
2022-09-04T15:07:56.970Z,3.95
2022-09-04T15:10:36.307Z,2.63
2022-09-04T15:13:35.598Z,3.80
2022-09-04T15:16:12.432Z,2.63
2022-09-04T15:18:59.055Z,4.57
2022-09-04T15:21:41.547Z,2.67
2022-09-04T15:24:16.667Z,2.97
2022-09-04T15:26:50.344Z,3.30
2022-09-04T15:29:25.864Z,2.88
2022-09-04T15:32:00.663Z,2.30
2022-09-04T15:34:29.565Z,2.85
2022-09-04T15:37:10.121Z,2.00
2022-09-04T15:39:46.146Z,3.95
2022-09-04T15:42:31.298Z,2.45
2022-09-04T15:45:01.630Z,2.38
2022-09-04T15:47:51.049Z,2.30
2022-09-04T15:50:22.099Z,5.45
2022-09-04T15:52:57.456Z,2.30
2022-09-04T15:55:28.051Z,2.85
2022-09-04T15:58:04.852Z,2.58
2022-09-04T16:00:38.354Z,5.57
2022-09-04T16:03:16.031Z,2.47
2022-09-04T16:05:47.960Z,1.77
2022-09-04T16:08:23.551Z,3.00
2022-09-04T16:10:57.689Z,8.02
2022-09-04T16:13:36.681Z,2.58
2022-09-04T16:16:13.021Z,3.35
2022-09-04T16:18:50.569Z,5.25
2022-09-04T16:21:29.145Z,4.85
2022-09-04T16:24:08.974Z,3.45
2022-09-04T16:26:38.412Z,4.80
2022-09-04T16:29:12.321Z,9.32
2022-09-04T16:31:41.474Z,2.75
2022-09-04T16:34:24.255Z,3.30
2022-09-04T16:37:02.145Z,5.45
2022-09-04T16:39:38.477Z,4.53
2022-09-04T16:42:19.511Z,4.18
2022-09-04T16:44:52.874Z,2.55
2022-09-04T16:47:29.181Z,2.00
2022-09-04T16:50:11.813Z,2.92
2022-09-04T16:52:56.863Z,2.92
2022-09-04T16:55:44.774Z,3.13
2022-09-04T16:58:35.442Z,2.22
2022-09-04T17:01:14.704Z,2.85
2022-09-04T17:03:54.900Z,2.35
2022-09-04T17:06:56.309Z,4.03
2022-09-04T17:09:29.838Z,2.65
2022-09-04T17:12:06.983Z,5.72
2022-09-04T17:14:39.951Z,2.60
2022-09-04T17:17:31.286Z,2.28
2022-09-04T17:20:08.161Z,2.33
2022-09-04T17:29:00.112Z,5.30
2022-09-04T17:29:09.379Z,2.90
2022-09-04T17:29:17.342Z,3.28
2022-09-04T17:31:45.513Z,3.45
2022-09-04T17:40:35.394Z,3.58
2022-09-04T17:40:43.205Z,2.67
2022-09-04T17:40:43.286Z,3.97
2022-09-04T17:43:24.379Z,3.58
2022-09-04T17:46:07.671Z,3.83
2022-09-04T17:48:41.771Z,4.95
2022-09-04T17:51:19.276Z,6.10
2022-09-04T17:53:52.770Z,4.10
2022-09-04T17:56:28.453Z,5.55
2022-09-04T17:59:02.669Z,4.20
2022-09-04T18:01:38.064Z,5.07
2022-09-04T18:04:22.663Z,4.05
2022-09-04T18:06:59.316Z,5.10
2022-09-04T18:09:39.062Z,4.85
2022-09-04T18:12:16.148Z,5.00
2022-09-04T18:15:32.234Z,3.50
2022-09-04T18:17:55.271Z,3.92
2022-09-04T18:20:37.803Z,5.28
2022-09-04T18:23:24.813Z,4.15
2022-09-04T18:26:00.523Z,5.28
2022-09-04T18:28:36.421Z,7.28
2022-09-04T18:37:08.683Z,7.38
2022-09-04T18:37:15.977Z,7.75
2022-09-04T18:37:24.935Z,5.78
2022-09-04T18:40:03.714Z,5.32
2022-09-04T18:50:20.466Z,6.18
2022-09-04T18:50:28.928Z,5.20
2022-09-04T18:50:33.812Z,11.02
2022-09-04T18:51:24.932Z,5.15
2022-09-04T18:53:57.745Z,4.70
2022-09-04T18:56:29.681Z,4.60
2022-09-04T18:59:08.203Z,5.55
2022-09-04T19:01:43.823Z,5.95
2022-09-04T19:04:33.945Z,6.43
2022-09-04T19:07:07.617Z,7.57
2022-09-04T19:09:58.001Z,7.47
2022-09-04T19:12:35.787Z,6.32
2022-09-04T19:15:36.604Z,10.60
2022-09-04T19:18:14.923Z,6.95
2022-09-04T19:20:48.323Z,8.02
2022-09-04T19:23:25.220Z,7.68
2022-09-04T19:25:55.478Z,6.38
2022-09-04T19:28:28.347Z,5.80
2022-09-04T19:31:02.822Z,7.30
2022-09-04T19:33:39.063Z,13.75
2022-09-04T19:36:12.828Z,11.43
2022-09-04T19:45:56.102Z,8.60
2022-09-04T19:45:57.761Z,7.30
2022-09-04T19:46:25.889Z,12.68
2022-09-04T19:47:29.460Z,9.93
2022-09-04T19:51:46.448Z,8.60
2022-09-04T19:53:34.100Z,7.72
2022-09-04T19:55:47.538Z,10.90
2022-09-04T19:58:19.265Z,9.45
2022-09-04T20:00:50.828Z,7.13
2022-09-04T20:03:30.967Z,10.07
2022-09-04T20:06:20.062Z,11.43
2022-09-04T20:08:53.988Z,7.47
2022-09-04T20:11:34.574Z,9.75
2022-09-04T20:14:13.966Z,7.55
2022-09-04T20:16:51.259Z,11.77
2022-09-04T20:19:28.474Z,12.77
2022-09-04T20:22:01.819Z,13.88
2022-09-04T20:24:37.810Z,11.20
2022-09-04T20:27:15.577Z,11.25
2022-09-04T20:29:54.153Z,12.48
2022-09-04T20:32:26.608Z,7.40
2022-09-04T20:35:13.680Z,9.50
2022-09-04T20:37:46.270Z,7.28
2022-09-04T20:40:27.156Z,7.05
2022-09-04T20:43:09.121Z,9.68
2022-09-04T20:47:23.065Z,9.25
2022-09-04T20:52:49.483Z,9.10
2022-09-04T20:52:59.188Z,4.32
2022-09-04T20:54:40.633Z,9.02
2022-09-04T21:01:52.954Z,4.38
2022-09-04T21:03:20.990Z,4.15
2022-09-04T21:03:28.025Z,5.10
2022-09-04T21:06:07.386Z,7.15
2022-09-04T21:08:46.441Z,6.43
2022-09-04T21:11:40.482Z,7.90
2022-09-04T21:14:12.547Z,4.50
2022-09-04T21:16:58.270Z,4.53
2022-09-04T21:19:43.893Z,5.77
2022-09-04T21:22:32.250Z,6.37
2022-09-04T21:25:31.075Z,5.47
2022-09-04T21:28:24.583Z,5.43
2022-09-04T21:31:11.041Z,4.80
2022-09-04T21:33:48.306Z,6.43
2022-09-04T21:36:27.502Z,4.90
2022-09-04T21:39:19.499Z,6.67
2022-09-04T21:42:16.916Z,6.50
2022-09-04T21:45:06.278Z,5.33
2022-09-04T21:47:46.506Z,6.93
2022-09-04T21:50:35.257Z,7.03
2022-09-04T21:53:34.954Z,4.87
2022-09-04T22:02:25.172Z,7.20
2022-09-04T22:02:36.821Z,5.33
2022-09-04T22:02:54.436Z,8.57
2022-09-04T22:05:32.891Z,4.37
2022-09-04T22:12:05.037Z,5.80
2022-09-04T22:13:31.928Z,4.10
2022-09-04T22:14:15.770Z,7.30
2022-09-04T22:17:06.789Z,6.67
2022-09-04T22:20:16.530Z,5.03
2022-09-04T22:23:24.781Z,4.30
2022-09-04T22:26:23.811Z,6.07
2022-09-04T22:29:07.627Z,5.03
2022-09-04T22:32:20.294Z,4.57
2022-09-04T22:35:24.110Z,5.90
2022-09-04T22:38:26.257Z,6.60
2022-09-04T22:41:10.538Z,2.97
2022-09-04T22:43:46.678Z,4.97
2022-09-04T22:46:41.106Z,6.77
2022-09-04T22:49:33.860Z,5.70
2022-09-04T22:52:20.970Z,7.87
2022-09-04T22:55:29.312Z,5.83
2022-09-04T22:58:19.735Z,5.87
2022-09-04T23:01:04.445Z,9.13
2022-09-04T23:03:46.456Z,5.77
2022-09-04T23:11:07.042Z,4.77
2022-09-04T23:13:48.275Z,4.83
2022-09-04T23:14:05.578Z,7.40
2022-09-04T23:16:37.136Z,4.00
2022-09-04T23:26:35.719Z,4.63
2022-09-04T23:26:45.164Z,4.53
2022-09-04T23:26:53.814Z,8.77
2022-09-04T23:28:51.622Z,3.97
2022-09-04T23:31:37.425Z,3.93
2022-09-04T23:34:24.642Z,5.20
2022-09-04T23:37:23.042Z,6.63
2022-09-04T23:40:18.841Z,4.90
2022-09-04T23:43:07.464Z,8.17
2022-09-04T23:46:08.866Z,4.73
2022-09-04T23:48:50.019Z,10.33
2022-09-04T23:51:27.886Z,6.33
2022-09-04T23:54:25.252Z,5.47
2022-09-04T23:57:00.865Z,4.83
2022-09-04T23:59:46.082Z,5.00
